createdAt,value
2022-12-26T00:01:45.150Z,98012.31
2022-12-26T00:04:51.541Z,98007.75
2022-12-26T00:06:58.359Z,98001.09
2022-12-26T00:09:24.762Z,97995.25
2022-12-26T00:11:51.394Z,97994.63
2022-12-26T00:14:17.823Z,97973.81
2022-12-26T00:16:45.861Z,97968.81
2022-12-26T00:19:13.055Z,97961.03
2022-12-26T00:21:39.484Z,97971.88
2022-12-26T00:24:06.210Z,97970.03
2022-12-26T00:26:33.644Z,97968.50
2022-12-26T00:29:00.161Z,97977.44
2022-12-26T00:31:29.714Z,97959.03
2022-12-26T00:33:56.536Z,97951.97
2022-12-26T00:36:29.704Z,97959.09
2022-12-26T00:38:58.512Z,97957.44
2022-12-26T00:41:25.116Z,97959.75
2022-12-26T00:43:51.586Z,97963.81
2022-12-26T00:46:18.740Z,97963.81
2022-12-26T00:48:45.354Z,97962.91
2022-12-26T00:51:11.823Z,97970.91
2022-12-26T00:53:38.701Z,97984.03
2022-12-26T00:56:05.528Z,97971.69
2022-12-26T00:58:32.170Z,97970.16
2022-12-26T01:01:12.760Z,97964.41
2022-12-26T01:03:39.962Z,97950.47
2022-12-26T01:06:06.859Z,97962.72
2022-12-26T01:08:33.543Z,97960.88
2022-12-26T01:11:05.100Z,97964.59
2022-12-26T01:13:31.752Z,97973.22
2022-12-26T01:15:58.519Z,97985.53
2022-12-26T01:18:25.293Z,97993.22
2022-12-26T01:20:52.196Z,97986.84
2022-12-26T01:23:18.708Z,97993.09
2022-12-26T01:26:15.737Z,97991.38
2022-12-26T01:28:31.854Z,97980.00
2022-12-26T01:31:04.693Z,97973.66
2022-12-26T01:33:34.305Z,97962.59
2022-12-26T01:36:00.898Z,97965.06
2022-12-26T01:38:28.272Z,97954.69
2022-12-26T01:41:14.674Z,97958.25
2022-12-26T01:43:53.197Z,97959.25
2022-12-26T01:46:24.300Z,97954.22
2022-12-26T01:48:51.770Z,97968.34
2022-12-26T01:51:20.693Z,97968.34
2022-12-26T01:53:50.504Z,97976.16
2022-12-26T01:56:23.627Z,97969.88
2022-12-26T01:58:55.806Z,97977.63
2022-12-26T02:01:27.977Z,97989.72
2022-12-26T02:04:13.261Z,97991.63
2022-12-26T02:06:41.358Z,97987.03
2022-12-26T02:09:09.096Z,97995.03
2022-12-26T02:11:40.259Z,97999.19
2022-12-26T02:14:08.374Z,98009.03
2022-12-26T02:16:37.004Z,98003.38
2022-12-26T02:19:06.634Z,98007.69
2022-12-26T02:21:33.013Z,98003.38
2022-12-26T02:24:44.076Z,98005.19
2022-12-26T02:27:37.213Z,98008.19
2022-12-26T02:30:42.165Z,97995.00
2022-12-26T02:33:35.195Z,97991.38
2022-12-26T02:36:16.751Z,97998.78
2022-12-26T02:39:03.402Z,97991.00
2022-12-26T02:42:03.290Z,98003.22
2022-12-26T02:45:05.323Z,98007.56
2022-12-26T02:48:14.787Z,97997.72
2022-12-26T02:51:55.257Z,97992.09
2022-12-26T02:54:50.831Z,97986.53
2022-12-26T02:57:40.555Z,97993.56
2022-12-26T03:00:31.758Z,97999.50
2022-12-26T03:03:29.261Z,97992.84
2022-12-26T03:06:26.463Z,97988.50
2022-12-26T03:09:34.674Z,97995.47
2022-12-26T03:12:31.875Z,98003.59
2022-12-26T03:15:02.865Z,97989.53
2022-12-26T03:17:35.740Z,97994.44
2022-12-26T03:20:05.599Z,97999.63
2022-12-26T03:22:39.682Z,97998.03
2022-12-26T03:25:30.802Z,98000.47
2022-12-26T03:27:57.395Z,98003.66
2022-12-26T03:30:43.076Z,97992.25
2022-12-26T03:33:29.692Z,97992.03
2022-12-26T03:35:56.858Z,98000.00
2022-12-26T03:38:33.812Z,98006.09
2022-12-26T03:41:31.446Z,98021.88
2022-12-26T03:44:22.732Z,98015.16
2022-12-26T03:47:35.605Z,98012.34
2022-12-26T03:50:30.380Z,98029.75
2022-12-26T03:53:35.300Z,98033.25
2022-12-26T03:56:32.862Z,98019.50
2022-12-26T03:59:29.325Z,98017.47
2022-12-26T04:02:20.096Z,98015.38
2022-12-26T04:05:05.443Z,98012.13
2022-12-26T04:07:56.654Z,98003.22
2022-12-26T04:11:04.144Z,98017.72
2022-12-26T04:14:08.016Z,98013.19
2022-12-26T04:16:59.820Z,98003.84
2022-12-26T04:19:42.479Z,98016.19
2022-12-26T04:22:56.341Z,98007.44
2022-12-26T04:25:48.745Z,97998.09
2022-12-26T04:28:37.130Z,97996.94
2022-12-26T04:31:29.682Z,97989.78
2022-12-26T04:34:23.653Z,98001.09
2022-12-26T04:37:16.410Z,98023.34
2022-12-26T04:40:06.955Z,98022.13
2022-12-26T04:42:53.689Z,98021.44
2022-12-26T04:45:21.806Z,98018.81
2022-12-26T04:48:09.002Z,98010.06
2022-12-26T04:50:35.605Z,98002.00
2022-12-26T04:53:02.186Z,98000.09
2022-12-26T04:55:31.093Z,98007.31
2022-12-26T04:57:57.971Z,98021.34
2022-12-26T05:00:26.030Z,98010.13
2022-12-26T05:03:17.975Z,98011.53
2022-12-26T05:06:06.882Z,98003.25
2022-12-26T05:08:55.785Z,97987.53
2022-12-26T05:11:22.402Z,97986.72
2022-12-26T05:13:56.619Z,97979.88
2022-12-26T05:16:42.449Z,97985.84
2022-12-26T05:19:32.743Z,97981.53
2022-12-26T05:22:19.279Z,97983.41
2022-12-26T05:25:05.172Z,97981.41
2022-12-26T05:27:56.036Z,97969.38
2022-12-26T05:30:23.325Z,97985.13
2022-12-26T05:33:08.449Z,97978.06
2022-12-26T05:35:35.789Z,97979.66
2022-12-26T05:38:03.611Z,97997.00
2022-12-26T05:40:30.451Z,97999.69
2022-12-26T05:42:57.319Z,98006.94
2022-12-26T05:45:24.036Z,98008.84
2022-12-26T05:47:52.159Z,98008.56
2022-12-26T05:50:19.319Z,98010.31
2022-12-26T05:52:46.015Z,98024.56
2022-12-26T05:55:12.833Z,98024.44
2022-12-26T05:57:39.368Z,98032.19
2022-12-26T06:00:06.629Z,98031.41
2022-12-26T06:02:33.251Z,98034.94
2022-12-26T06:04:59.928Z,98034.03
2022-12-26T06:07:27.411Z,98030.66
2022-12-26T06:09:54.071Z,98030.84
2022-12-26T06:12:20.672Z,98043.16
2022-12-26T06:14:47.210Z,98037.75
2022-12-26T06:17:14.781Z,98047.47
2022-12-26T06:19:46.538Z,98042.88
2022-12-26T06:22:13.384Z,98034.78
2022-12-26T06:24:39.840Z,98041.91
2022-12-26T06:27:06.293Z,98052.88
2022-12-26T06:29:32.738Z,98053.78
2022-12-26T06:31:59.367Z,98042.84
2022-12-26T06:34:27.723Z,98037.34
2022-12-26T06:36:55.567Z,98042.13
2022-12-26T06:39:23.395Z,98042.50
2022-12-26T06:41:50.182Z,98032.75
2022-12-26T06:44:18.735Z,98040.63
2022-12-26T06:46:45.818Z,98034.78
2022-12-26T06:49:12.456Z,98032.31
2022-12-26T06:51:39.046Z,98052.25
2022-12-26T06:54:05.537Z,98063.81
2022-12-26T06:56:32.873Z,98052.88
2022-12-26T06:59:02.625Z,98073.38
2022-12-26T07:01:31.738Z,98073.16
2022-12-26T07:03:58.876Z,98069.16
2022-12-26T07:06:31.929Z,98074.63
2022-12-26T07:09:06.428Z,98067.53
2022-12-26T07:11:36.153Z,98069.16
2022-12-26T07:14:02.871Z,98084.94
2022-12-26T07:16:29.377Z,98089.38
2022-12-26T07:18:57.082Z,98093.91
2022-12-26T07:21:25.535Z,98094.03
2022-12-26T07:23:53.216Z,98096.41
2022-12-26T07:26:21.870Z,98099.56
2022-12-26T07:28:48.325Z,98093.44
2022-12-26T07:31:17.652Z,98086.56
2022-12-26T07:33:48.776Z,98074.34
2022-12-26T07:36:15.534Z,98093.72
2022-12-26T07:38:44.103Z,98109.31
2022-12-26T07:41:41.076Z,98105.88
2022-12-26T07:44:09.683Z,98111.22
2022-12-26T07:46:36.193Z,98094.28
2022-12-26T07:49:03.445Z,98110.66
2022-12-26T07:51:29.929Z,98106.28
2022-12-26T07:53:56.834Z,98093.16
2022-12-26T07:56:23.400Z,98082.53
2022-12-26T07:58:50.847Z,98090.28
2022-12-26T08:01:18.160Z,98091.13
2022-12-26T08:03:45.126Z,98093.50
2022-12-26T08:06:12.140Z,98095.19
2022-12-26T08:08:39.025Z,98099.56
2022-12-26T08:11:07.865Z,98089.03
2022-12-26T08:13:35.145Z,98090.19
2022-12-26T08:16:10.398Z,98101.63
2022-12-26T08:18:36.855Z,98089.34
2022-12-26T08:21:03.638Z,98085.59
2022-12-26T08:23:30.663Z,98083.84
2022-12-26T08:25:57.099Z,98080.59
2022-12-26T08:28:23.883Z,98080.53
2022-12-26T08:30:50.560Z,98086.53
2022-12-26T08:33:17.112Z,98090.84
2022-12-26T08:35:44.204Z,98101.16
2022-12-26T08:38:10.754Z,98098.75
2022-12-26T08:40:45.315Z,98108.34
2022-12-26T08:43:30.326Z,98108.13
2022-12-26T08:46:01.172Z,98095.16
2022-12-26T08:48:27.857Z,98107.94
2022-12-26T08:51:12.913Z,98094.53
2022-12-26T08:53:39.606Z,98109.47
2022-12-26T08:56:13.061Z,98108.75
2022-12-26T08:58:41.979Z,98122.44
2022-12-26T09:01:10.334Z,98126.09
2022-12-26T09:03:38.207Z,98131.44
2022-12-26T09:06:06.539Z,98130.50
2022-12-26T09:08:35.036Z,98123.66
2022-12-26T09:11:03.980Z,98136.06
2022-12-26T09:13:31.099Z,98132.53
2022-12-26T09:16:05.258Z,98133.59
2022-12-26T09:18:31.878Z,98137.69
2022-12-26T09:21:02.851Z,98144.41
2022-12-26T09:23:29.483Z,98148.88
2022-12-26T09:25:56.659Z,98140.19
2022-12-26T09:28:23.136Z,98134.78
2022-12-26T09:30:49.660Z,98124.28
2022-12-26T09:33:16.301Z,98134.00
2022-12-26T09:35:46.030Z,98134.81
2022-12-26T09:38:12.494Z,98125.06
2022-12-26T09:40:50.161Z,98146.81
2022-12-26T09:43:29.681Z,98130.00
2022-12-26T09:46:29.492Z,98146.78
2022-12-26T09:49:10.194Z,98127.25
2022-12-26T09:51:41.605Z,98132.53
2022-12-26T09:54:19.200Z,98147.72
2022-12-26T09:57:02.380Z,98144.84
2022-12-26T09:59:33.086Z,98149.53
2022-12-26T10:01:59.679Z,98147.47
2022-12-26T10:04:34.201Z,98137.13
2022-12-26T10:07:29.212Z,98147.22
2022-12-26T10:10:14.313Z,98161.41
2022-12-26T10:12:59.086Z,98162.50
2022-12-26T10:15:49.497Z,98152.91
2022-12-26T10:18:46.938Z,98153.09
2022-12-26T10:21:34.690Z,98149.03
2022-12-26T10:24:20.101Z,98169.19
2022-12-26T10:26:55.865Z,98201.47
2022-12-26T10:29:28.326Z,98212.25
2022-12-26T10:32:00.375Z,98223.59
2022-12-26T10:34:37.067Z,98223.31
2022-12-26T10:37:22.311Z,98234.78
2022-12-26T10:39:56.764Z,98243.56
2022-12-26T10:42:36.147Z,98241.03
2022-12-26T10:45:12.419Z,98241.94
2022-12-26T10:47:42.006Z,98235.28
2022-12-26T10:50:16.883Z,98229.75
2022-12-26T10:52:52.545Z,98230.09
2022-12-26T10:55:29.652Z,98217.88
2022-12-26T10:58:15.298Z,98222.84
2022-12-26T11:00:42.026Z,98224.56
2022-12-26T11:03:11.197Z,98234.31
2022-12-26T11:08:42.978Z,98239.00
2022-12-26T11:11:22.579Z,98242.53
2022-12-26T11:14:01.358Z,98237.22
2022-12-26T11:16:34.937Z,98241.53
2022-12-26T11:19:01.883Z,98246.19
2022-12-26T11:21:30.334Z,98255.84
2022-12-26T11:24:22.163Z,98253.22
2022-12-26T11:26:49.040Z,98243.69
2022-12-26T11:29:21.331Z,98236.59
2022-12-26T11:31:56.400Z,98248.94
2022-12-26T11:34:55.334Z,98231.38
2022-12-26T11:37:37.507Z,98217.41
2022-12-26T11:40:04.916Z,98217.41
2022-12-26T11:42:33.359Z,98209.44
2022-12-26T11:45:03.844Z,98208.44
2022-12-26T11:47:30.584Z,98208.47
2022-12-26T11:50:21.266Z,98204.91
2022-12-26T11:52:57.456Z,98207.63
2022-12-26T11:55:24.217Z,98218.81
2022-12-26T11:58:01.805Z,98216.06
2022-12-26T12:00:37.155Z,98223.84
2022-12-26T12:03:16.368Z,98223.69
2022-12-26T12:06:02.523Z,98227.28
2022-12-26T12:08:49.892Z,98221.94
2022-12-26T12:11:28.621Z,98200.72
2022-12-26T12:14:09.651Z,98200.59
2022-12-26T12:16:55.533Z,98202.53
2022-12-26T12:20:00.806Z,98205.94
2022-12-26T12:22:45.791Z,98200.47
2022-12-26T12:25:35.674Z,98204.88
2022-12-26T12:28:08.672Z,98204.69
2022-12-26T12:30:53.021Z,98208.06
2022-12-26T12:33:38.767Z,98203.78
2022-12-26T12:36:17.835Z,98197.63
2022-12-26T12:38:58.093Z,98199.84
2022-12-26T12:41:30.911Z,98196.53
2022-12-26T12:44:16.753Z,98182.22
2022-12-26T12:46:55.463Z,98183.19
2022-12-26T12:49:35.049Z,98189.34
2022-12-26T12:52:10.335Z,98193.72
2022-12-26T12:55:15.315Z,98182.03
2022-12-26T12:58:09.652Z,98187.78
2022-12-26T13:00:54.195Z,98186.22
2022-12-26T13:03:48.898Z,98182.59
2022-12-26T13:06:25.469Z,98176.47
2022-12-26T13:09:05.097Z,98182.59
2022-12-26T13:11:44.645Z,98173.41
2022-12-26T13:14:24.905Z,98173.66
2022-12-26T13:17:03.414Z,98173.72
2022-12-26T13:19:50.032Z,98169.94
2022-12-26T13:22:50.319Z,98176.16
2022-12-26T13:25:19.050Z,98171.88
2022-12-26T13:27:51.472Z,98172.03
2022-12-26T13:30:18.281Z,98169.13
2022-12-26T13:32:47.322Z,98164.78
2022-12-26T13:35:52.706Z,98165.50
2022-12-26T13:38:40.708Z,98169.88
2022-12-26T13:41:25.748Z,98161.91
2022-12-26T13:44:07.976Z,98155.16
2022-12-26T13:46:40.545Z,98149.41
2022-12-26T13:49:36.897Z,98147.84
2022-12-26T13:52:12.438Z,98154.81
2022-12-26T13:54:55.395Z,98150.25
2022-12-26T13:57:44.971Z,98174.03
2022-12-26T14:00:40.696Z,98166.94
2022-12-26T14:03:32.123Z,98172.03
2022-12-26T14:06:31.070Z,98164.09
2022-12-26T14:09:10.944Z,98165.97
2022-12-26T14:12:24.989Z,98160.84
2022-12-26T14:15:09.868Z,98152.84
2022-12-26T14:17:36.251Z,98145.13
2022-12-26T14:20:15.852Z,98140.91
2022-12-26T14:22:48.405Z,98144.47
2022-12-26T14:25:25.803Z,98150.91
2022-12-26T14:27:56.415Z,98159.03
2022-12-26T14:30:35.619Z,98152.63
2022-12-26T14:33:23.518Z,98153.66
2022-12-26T14:35:53.092Z,98164.09
2022-12-26T14:38:47.827Z,98162.28
2022-12-26T14:41:36.057Z,98160.56
2022-12-26T14:44:37.630Z,98175.47
2022-12-26T14:47:05.312Z,98175.53
2022-12-26T14:49:35.516Z,98186.97
2022-12-26T14:52:32.218Z,98177.44
2022-12-26T14:55:38.668Z,98173.91
2022-12-26T14:58:29.894Z,98177.34
2022-12-26T15:01:18.165Z,98178.28
2022-12-26T15:04:06.065Z,98183.28
2022-12-26T15:07:02.741Z,98188.69
2022-12-26T15:09:44.559Z,98180.72
2022-12-26T15:12:19.207Z,98183.19
2022-12-26T15:15:04.780Z,98184.22
2022-12-26T15:17:45.282Z,98179.88
2022-12-26T15:20:30.109Z,98173.03
2022-12-26T15:23:17.589Z,98179.66
2022-12-26T15:25:57.936Z,98189.09
2022-12-26T15:28:47.450Z,98189.16
2022-12-26T15:31:33.003Z,98188.13
2022-12-26T15:34:11.863Z,98186.41
2022-12-26T15:36:52.301Z,98196.81
2022-12-26T15:39:30.486Z,98201.91
2022-12-26T15:42:14.018Z,98206.41
2022-12-26T15:45:19.611Z,98203.59
2022-12-26T15:47:52.128Z,98202.13
2022-12-26T15:50:29.341Z,98208.63
2022-12-26T15:52:57.339Z,98200.66
2022-12-26T15:56:01.708Z,98200.75
2022-12-26T15:59:19.287Z,98198.88
2022-12-26T16:01:50.995Z,98198.22
2022-12-26T16:04:46.927Z,98202.56
2022-12-26T16:07:37.876Z,98196.69
2022-12-26T16:10:27.726Z,98197.59
2022-12-26T16:13:06.359Z,98200.47
2022-12-26T16:15:33.646Z,98195.06
2022-12-26T16:18:25.982Z,98185.47
2022-12-26T16:21:14.188Z,98174.97
2022-12-26T16:23:46.603Z,98162.78
2022-12-26T16:26:40.914Z,98141.09
2022-12-26T16:29:23.315Z,98154.59
2022-12-26T16:31:50.027Z,98173.09
2022-12-26T16:34:19.656Z,98173.13
2022-12-26T16:36:49.255Z,98173.09
2022-12-26T16:39:23.584Z,98181.81
2022-12-26T16:42:01.792Z,98188.31
2022-12-26T16:44:38.353Z,98187.47
2022-12-26T16:47:13.289Z,98191.75
2022-12-26T16:49:43.508Z,98182.09
2022-12-26T16:52:33.507Z,98170.78
2022-12-26T16:55:24.143Z,98169.75
2022-12-26T16:57:53.776Z,98171.59
2022-12-26T17:00:21.311Z,98170.00
2022-12-26T17:02:55.943Z,98160.28
2022-12-26T17:05:27.085Z,98171.72
2022-12-26T17:07:55.942Z,98174.59
2022-12-26T17:10:34.989Z,98184.84
2022-12-26T17:13:08.570Z,98190.19
2022-12-26T17:15:40.809Z,98186.56
2022-12-26T17:18:36.032Z,98195.06
2022-12-26T17:21:38.144Z,98211.81
2022-12-26T17:24:12.065Z,98219.88
2022-12-26T17:26:40.855Z,98217.38
2022-12-26T17:29:49.490Z,98226.16
2022-12-26T17:32:32.227Z,98231.63
2022-12-26T17:35:11.044Z,98231.63
2022-12-26T17:37:44.920Z,98234.38
2022-12-26T17:40:16.552Z,98234.31
2022-12-26T17:42:57.576Z,98237.84
2022-12-26T17:45:27.069Z,98252.72
2022-12-26T17:47:55.223Z,98255.34
2022-12-26T17:50:24.651Z,98270.31
2022-12-26T17:52:51.811Z,98279.31
2022-12-26T17:55:27.427Z,98294.56
2022-12-26T17:57:56.860Z,98293.25
2022-12-26T18:00:26.448Z,98296.88
2022-12-26T18:02:53.796Z,98294.47
2022-12-26T18:05:21.102Z,98307.09
2022-12-26T18:07:50.803Z,98320.94
2022-12-26T18:10:21.021Z,98331.81
2022-12-26T18:12:47.965Z,98341.50
2022-12-26T18:15:15.141Z,98326.72
2022-12-26T18:17:51.070Z,98330.41
2022-12-26T18:20:26.805Z,98356.63
2022-12-26T18:22:53.585Z,98354.88
2022-12-26T18:25:29.245Z,98352.31
2022-12-26T18:27:56.245Z,98345.50
2022-12-26T18:30:25.234Z,98350.81
2022-12-26T18:32:53.416Z,98357.13
2022-12-26T18:35:28.001Z,98359.72
2022-12-26T18:37:54.670Z,98363.31
2022-12-26T18:40:40.180Z,98358.97
2022-12-26T18:43:08.607Z,98343.38
2022-12-26T18:45:38.595Z,98353.06
2022-12-26T18:48:07.031Z,98333.59
2022-12-26T18:50:34.902Z,98327.69
2022-12-26T18:53:10.802Z,98344.31
2022-12-26T18:55:37.934Z,98347.84
2022-12-26T18:58:04.894Z,98346.06
2022-12-26T19:00:31.903Z,98340.78
2022-12-26T19:02:58.862Z,98344.41
2022-12-26T19:05:34.385Z,98353.94
2022-12-26T19:08:04.815Z,98368.81
2022-12-26T19:10:34.139Z,98374.16
2022-12-26T19:13:14.030Z,98370.59
2022-12-26T19:15:48.646Z,98361.00
2022-12-26T19:18:15.561Z,98367.97
2022-12-26T19:20:53.324Z,98381.13
2022-12-26T19:23:20.087Z,98376.66
2022-12-26T19:25:46.805Z,98380.22
2022-12-26T19:28:13.486Z,98377.63
2022-12-26T19:30:40.109Z,98354.16
2022-12-26T19:33:16.392Z,98360.19
2022-12-26T19:35:42.928Z,98351.50
2022-12-26T19:38:09.446Z,98362.06
2022-12-26T19:40:36.043Z,98367.28
2022-12-26T19:43:02.835Z,98372.56
2022-12-26T19:45:36.793Z,98382.91
2022-12-26T19:48:03.467Z,98382.81
2022-12-26T19:50:30.380Z,98381.16
2022-12-26T19:52:57.051Z,98386.34
2022-12-26T19:55:23.937Z,98404.59
2022-12-26T19:57:57.933Z,98409.06
2022-12-26T20:00:27.020Z,98421.28
2022-12-26T20:03:01.207Z,98438.09
2022-12-26T20:05:27.866Z,98447.16
2022-12-26T20:08:02.396Z,98456.94
2022-12-26T20:10:28.976Z,98461.38
2022-12-26T20:12:55.731Z,98470.97
2022-12-26T20:15:22.301Z,98471.00
2022-12-26T20:17:49.327Z,98472.78
2022-12-26T20:20:23.714Z,98468.47
2022-12-26T20:22:53.183Z,98483.28
2022-12-26T20:25:20.122Z,98490.25
2022-12-26T20:27:46.816Z,98494.59
2022-12-26T20:30:13.348Z,98505.03
2022-12-26T20:32:44.068Z,98505.94
2022-12-26T20:35:10.682Z,98521.59
2022-12-26T20:37:37.290Z,98521.53
2022-12-26T20:40:04.234Z,98525.03
2022-12-26T20:42:30.857Z,98526.78
2022-12-26T20:44:57.434Z,98529.38
2022-12-26T20:47:27.035Z,98525.06
2022-12-26T20:49:53.592Z,98537.22
2022-12-26T20:52:20.297Z,98532.06
2022-12-26T20:54:47.038Z,98548.56
2022-12-26T20:57:13.596Z,98558.09
2022-12-26T20:59:40.222Z,98567.66
2022-12-26T21:02:14.397Z,98575.50
2022-12-26T21:04:41.125Z,98571.97
2022-12-26T21:07:07.759Z,98575.47
2022-12-26T21:09:34.470Z,98577.19
2022-12-26T21:12:01.050Z,98587.63
2022-12-26T21:14:36.559Z,98578.94
2022-12-26T21:17:03.214Z,98587.63
2022-12-26T21:19:30.651Z,98600.69
2022-12-26T21:21:57.443Z,98606.75
2022-12-26T21:24:39.665Z,98615.44
2022-12-26T21:27:06.236Z,98607.63
2022-12-26T21:29:35.130Z,98614.59
2022-12-26T21:32:03.178Z,98602.41
2022-12-26T21:34:36.578Z,98605.88
2022-12-26T21:37:21.854Z,98602.44
2022-12-26T21:39:57.121Z,98601.56
2022-12-26T21:42:23.647Z,98613.75
2022-12-26T21:44:50.422Z,98620.72
2022-12-26T21:47:17.047Z,98633.72
2022-12-26T21:49:43.555Z,98628.53
2022-12-26T21:52:17.973Z,98634.63
2022-12-26T21:55:03.120Z,98644.16
2022-12-26T21:57:35.237Z,98648.53
2022-12-26T22:00:03.261Z,98666.75
2022-12-26T22:02:53.620Z,98667.66
2022-12-26T22:05:22.185Z,98679.81
2022-12-26T22:07:56.391Z,98691.94
2022-12-26T22:10:43.645Z,98697.19
2022-12-26T22:13:10.475Z,98705.88
2022-12-26T22:16:03.481Z,98718.03
2022-12-26T22:18:43.403Z,98718.88
2022-12-26T22:21:16.160Z,98731.03
2022-12-26T22:23:44.058Z,98730.19
2022-12-26T22:26:13.528Z,98738.84
2022-12-26T22:28:40.212Z,98730.16
2022-12-26T22:31:09.485Z,98731.88
2022-12-26T22:33:36.064Z,98731.84
2022-12-26T22:36:07.461Z,98732.69
2022-12-26T22:38:35.002Z,98748.28
2022-12-26T22:41:01.917Z,98739.56
2022-12-26T22:43:29.807Z,98738.69
2022-12-26T22:45:56.849Z,98749.00
2022-12-26T22:48:24.424Z,98764.59
2022-12-26T22:50:54.282Z,98776.72
2022-12-26T22:53:37.239Z,98794.03
2022-12-26T22:56:06.590Z,98784.38
2022-12-26T22:58:34.326Z,98790.44
2022-12-26T23:01:01.682Z,98790.44
2022-12-26T23:03:35.640Z,98793.09
2022-12-26T23:06:02.728Z,98794.81
2022-12-26T23:08:29.595Z,98795.69
2022-12-26T23:10:58.560Z,98804.38
2022-12-26T23:13:25.999Z,98807.84
2022-12-26T23:15:57.396Z,98812.97
2022-12-26T23:18:59.562Z,98819.97
2022-12-26T23:21:39.761Z,98829.41
2022-12-26T23:24:24.049Z,98832.00
2022-12-26T23:27:22.384Z,98842.38
2022-12-26T23:30:09.221Z,98848.47
2022-12-26T23:32:37.021Z,98853.69
2022-12-26T23:35:05.484Z,98858.88
2022-12-26T23:37:32.318Z,98868.34
2022-12-26T23:39:58.883Z,98867.31
2022-12-26T23:42:29.614Z,98870.00
2022-12-26T23:44:56.172Z,98869.75
2022-12-26T23:47:22.958Z,98855.81
2022-12-26T23:49:49.448Z,98865.19
2022-12-26T23:52:16.027Z,98871.22
2022-12-26T23:54:42.684Z,98864.13
2022-12-26T23:57:14.564Z,98877.97
2022-12-26T23:59:41.083Z,98876.22
